Time;durP1;ratioP1;P1;durP2;ratioP2;P2;SDS_P1;SDS_P2;PMS_P1;PMS_P2;Temp;Humidity;BMP_temperature;BMP_pressure;BME280_temperature;BME280_humidity;BME280_pressure;Samples;Min_cycle;Max_cycle;Signal;HPM_P1;HPM_P2
2021/03/11 13:27:35;;;;;;;2.05;1.80;;;22.80;42.50;;;;;;5063068;28;20086;-43
2021/03/11 13:30:03;;;;;;;1.75;1.35;;;22.80;43.20;;;;;;5071447;28;20147;-42
2021/03/11 13:32:30;;;;;;;2.00;1.52;;;22.80;42.60;;;;;;5071064;28;20041;-43
2021/03/11 13:34:57;;;;;;;2.42;1.90;;;22.80;42.60;;;;;;5071563;28;20631;-45
2021/03/11 13:37:24;;;;;;;2.55;1.60;;;22.80;42.60;;;;;;5072323;28;20060;-43
2021/03/11 13:39:52;;;;;;;1.92;1.60;;;22.80;42.60;;;;;;5071265;28;20059;-42
2021/03/11 13:42:20;;;;;;;1.92;1.73;;;22.80;42.60;;;;;;5073490;28;20060;-43
2021/03/11 13:44:48;;;;;;;2.10;1.77;;;22.80;42.60;;;;;;5071601;28;20048;-43
2021/03/11 13:47:17;;;;;;;2.20;1.77;;;22.80;42.60;;;;;;5072594;28;20093;-41
2021/03/11 13:49:44;;;;;;;2.67;1.50;;;22.80;42.60;;;;;;5055103;28;20045;-42
2021/03/11 13:52:11;;;;;;;2.05;1.80;;;22.80;42.60;;;;;;5071651;28;20075;-42
2021/03/11 13:54:38;;;;;;;1.95;1.50;;;22.80;42.70;;;;;;5072211;28;20075;-42
2021/03/11 13:57:05;;;;;;;3.10;1.50;;;22.80;42.70;;;;;;5071042;28;20385;-42
2021/03/11 13:59:32;;;;;;;2.28;1.70;;;22.80;42.90;;;;;;5072177;28;20055;-42
2021/03/11 14:01:59;;;;;;;4.32;1.60;;;22.80;43.00;;;;;;5070737;28;20052;-42
2021/03/11 14:04:26;;;;;;;2.55;1.60;;;22.80;43.00;;;;;;5072253;28;20531;-42
2021/03/11 14:07:04;;;;;;;4.95;1.83;;;22.80;43.10;;;;;;5072269;28;20107;-42
2021/03/11 14:09:31;;;;;;;3.85;1.80;;;22.80;43.10;;;;;;5071770;28;20040;-51
2021/03/11 14:11:58;;;;;;;2.58;1.70;;;22.90;43.20;;;;;;5071162;28;20036;-43
2021/03/11 14:14:25;;;;;;;2.03;1.65;;;22.90;43.50;;;;;;5072057;28;20396;-47
2021/03/11 14:16:52;;;;;;;3.47;1.27;;;22.90;43.40;;;;;;5071176;28;20040;-46
2021/03/11 14:19:20;;;;;;;1.90;1.70;;;22.90;43.40;;;;;;5072976;28;20488;-43
2021/03/11 14:21:46;;;;;;;3.08;1.58;;;22.90;43.50;;;;;;5072259;28;20048;-42
2021/03/11 14:24:14;;;;;;;4.90;1.85;;;22.90;43.50;;;;;;5073044;28;20056;-43
2021/03/11 14:26:41;;;;;;;1.83;1.50;;;23.00;43.60;;;;;;5071668;28;20060;-42
2021/03/11 14:29:09;;;;;;;2.55;1.60;;;23.00;43.60;;;;;;5071450;28;20135;-43
2021/03/11 14:31:36;;;;;;;2.42;1.60;;;23.00;43.60;;;;;;5070626;28;20049;-43
2021/03/11 14:34:16;;;;;;;3.38;1.40;;;23.00;43.60;;;;;;5071561;28;20047;-43
2021/03/11 14:36:43;;;;;;;2.60;1.42;;;23.00;43.60;;;;;;5072102;28;20040;-43
2021/03/11 14:39:10;;;;;;;2.13;1.45;;;23.00;43.60;;;;;;5070575;28;20135;-42
2021/03/11 14:41:38;;;;;;;4.55;1.80;;;23.00;43.60;;;;;;5071639;28;20056;-43
2021/03/11 14:44:06;;;;;;;2.08;1.45;;;23.00;43.60;;;;;;5071541;28;20045;-43
2021/03/11 14:46:33;;;;;;;6.60;1.58;;;23.00;43.60;;;;;;5070523;28;20089;-42
2021/03/11 14:49:02;;;;;;;2.20;1.55;;;23.00;43.60;;;;;;5071386;28;20048;-43
2021/03/11 14:51:32;;;;;;;4.32;1.67;;;23.00;44.20;;;;;;5071590;28;20063;-44
2021/03/11 14:54:00;;;;;;;4.00;1.50;;;23.00;43.60;;;;;;5071932;28;20266;-43
2021/03/11 14:56:27;;;;;;;6.85;1.50;;;23.00;43.60;;;;;;5067844;28;20131;-42
2021/03/11 14:58:59;;;;;;;3.55;1.92;;;23.00;43.60;;;;;;5070584;28;20057;-43
2021/03/11 15:01:27;;;;;;;3.60;1.58;;;23.00;43.70;;;;;;5067933;28;20056;-42
2021/03/11 15:03:55;;;;;;;4.63;2.42;;;23.00;43.70;;;;;;5069643;28;20049;-45
2021/03/11 15:06:24;;;;;;;5.43;2.20;;;23.00;43.60;;;;;;5069928;28;20059;-45
2021/03/11 15:08:51;;;;;;;5.63;4.00;;;23.00;42.80;;;;;;5070293;28;20052;-43
2021/03/11 15:11:19;;;;;;;5.03;3.90;;;22.90;41.60;;;;;;5069902;28;20086;-46
2021/03/11 15:13:47;;;;;;;4.65;3.60;;;22.90;40.60;;;;;;5070162;28;20129;-43
2021/03/11 15:16:14;;;;;;;6.05;4.10;;;22.90;41.40;;;;;;5070690;28;20043;-43
2021/03/11 15:18:42;;;;;;;7.63;3.70;;;22.90;40.80;;;;;;5071067;28;20052;-43
2021/03/11 15:21:10;;;;;;;5.60;3.45;;;22.80;40.60;;;;;;5069766;28;20045;-42
2021/03/11 15:23:36;;;;;;;7.00;3.67;;;22.80;40.60;;;;;;5070771;28;20053;-42
2021/03/11 15:26:04;;;;;;;6.43;3.22;;;22.80;40.70;;;;;;5070039;28;20106;-47
2021/03/11 15:28:32;;;;;;;4.93;3.10;;;22.80;40.80;;;;;;5068641;28;20056;-48
2021/03/11 15:31:03;;;;;;;5.45;3.22;;;22.80;40.80;;;;;;5070058;28;20047;-46
2021/03/11 15:33:31;;;;;;;4.63;3.25;;;22.80;40.90;;;;;;5070520;28;20105;-50
2021/03/11 15:36:00;;;;;;;5.68;3.35;;;22.90;41.10;;;;;;5071658;28;20542;-48
2021/03/11 15:38:28;;;;;;;5.25;2.95;;;22.90;41.20;;;;;;5070090;28;20051;-43
2021/03/11 15:41:01;;;;;;;4.70;3.40;;;22.90;41.20;;;;;;5068989;28;20041;-46
2021/03/11 15:43:32;;;;;;;6.05;3.67;;;22.90;41.30;;;;;;5071478;28;20052;-46
2021/03/11 15:46:00;;;;;;;4.65;2.97;;;22.90;41.30;;;;;;5070404;28;20114;-46
2021/03/11 15:48:29;;;;;;;4.18;3.10;;;22.90;41.40;;;;;;5070069;28;20049;-48
2021/03/11 15:50:58;;;;;;;4.72;3.00;;;22.90;41.40;;;;;;5069374;28;20048;-49
2021/03/11 15:53:26;;;;;;;7.05;3.17;;;22.90;41.40;;;;;;5070390;28;20051;-45
2021/03/11 15:55:53;;;;;;;6.13;3.47;;;22.90;41.50;;;;;;5068189;28;20040;-50
2021/03/11 15:58:19;;;;;;;4.90;3.38;;;22.90;41.50;;;;;;5068901;28;20048;-43
2021/03/11 16:00:47;;;;;;;4.50;3.20;;;22.90;41.50;;;;;;5072640;28;20060;-47
2021/03/11 16:03:15;;;;;;;6.53;2.95;;;22.90;42.10;;;;;;5072728;28;20052;-44
2021/03/11 16:05:44;;;;;;;6.53;2.80;;;22.90;42.40;;;;;;5072812;28;20045;-42
2021/03/11 16:08:12;;;;;;;7.22;3.13;;;23.00;43.00;;;;;;5073170;28;20036;-43
2021/03/11 16:10:41;;;;;;;4.32;2.92;;;23.00;42.90;;;;;;5059432;28;20047;-43
2021/03/11 16:13:09;;;;;;;7.20;3.13;;;23.00;42.80;;;;;;5070712;28;20045;-45
2021/03/11 16:15:40;;;;;;;4.38;2.65;;;23.00;43.00;;;;;;5072186;28;20051;-43
2021/03/11 16:18:11;;;;;;;4.20;2.53;;;23.00;43.00;;;;;;5072476;28;20071;-44
2021/03/11 16:20:39;;;;;;;3.45;2.45;;;23.00;42.90;;;;;;5073555;28;20144;-43
2021/03/11 16:23:06;;;;;;;3.60;2.53;;;23.00;42.90;;;;;;5074373;28;20055;-42
2021/03/11 16:25:33;;;;;;;6.72;2.80;;;23.00;42.90;;;;;;5071372;28;20057;-42
2021/03/11 16:28:01;;;;;;;6.55;3.28;;;23.00;42.90;;;;;;5072106;28;20496;-43
2021/03/11 16:30:29;;;;;;;7.03;4.30;;;23.00;42.50;;;;;;5070627;28;20569;-43
2021/03/11 16:32:56;;;;;;;6.85;4.50;;;23.00;41.40;;;;;;5072221;28;20041;-44
2021/03/11 16:35:23;;;;;;;7.00;4.55;;;23.00;40.50;;;;;;5071838;28;20484;-43
2021/03/11 16:37:51;;;;;;;7.45;5.20;;;22.90;40.00;;;;;;5071598;28;20041;-43
2021/03/11 16:40:19;;;;;;;6.72;4.75;;;22.90;39.70;;;;;;5072519;28;20049;-42
2021/03/11 16:42:47;;;;;;;8.82;5.40;;;22.80;39.30;;;;;;5073518;28;20040;-44
2021/03/11 16:45:17;;;;;;;9.55;5.40;;;22.80;39.10;;;;;;5075691;28;20480;-42
2021/03/11 16:47:45;;;;;;;7.45;4.90;;;22.80;39.00;;;;;;5074263;28;20087;-43
2021/03/11 16:50:13;;;;;;;8.93;4.78;;;22.80;39.20;;;;;;5071444;28;20044;-42
2021/03/11 16:52:39;;;;;;;12.50;4.60;;;22.70;39.70;;;;;;5072856;28;20044;-43
2021/03/11 16:55:08;;;;;;;5.88;4.20;;;22.70;39.50;;;;;;5072984;28;20057;-42
2021/03/11 16:57:35;;;;;;;7.10;3.90;;;22.70;39.70;;;;;;5072783;28;20490;-42
2021/03/11 17:00:05;;;;;;;5.40;3.90;;;22.70;39.80;;;;;;5070594;28;20044;-43
2021/03/11 17:02:32;;;;;;;6.47;3.95;;;22.70;39.90;;;;;;5072385;28;20844;-42
2021/03/11 17:04:59;;;;;;;7.10;4.30;;;22.70;40.10;;;;;;5071600;28;20051;-44
2021/03/11 17:07:27;;;;;;;8.65;3.53;;;22.70;40.80;;;;;;5071064;28;20102;-42
2021/03/11 17:09:54;;;;;;;4.90;3.10;;;22.80;40.40;;;;;;5072856;28;20399;-42
2021/03/11 17:12:21;;;;;;;4.50;3.10;;;22.80;40.60;;;;;;5072283;28;20046;-43
2021/03/11 17:14:51;;;;;;;5.82;3.50;;;22.80;40.60;;;;;;5072082;28;20507;-42
2021/03/11 17:17:19;;;;;;;10.98;3.60;;;22.80;41.40;;;;;;5072848;28;20045;-42
2021/03/11 17:19:48;;;;;;;7.63;3.38;;;22.80;40.90;;;;;;5072459;28;20089;-43
2021/03/11 17:22:15;;;;;;;5.25;3.30;;;22.80;41.00;;;;;;5070605;28;20044;-42
2021/03/11 17:24:42;;;;;;;6.60;3.00;;;22.80;41.00;;;;;;5072465;28;20052;-43
2021/03/11 17:27:11;;;;;;;5.13;3.17;;;22.80;41.20;;;;;;5070879;28;20498;-44
2021/03/11 17:29:40;;;;;;;5.38;2.75;;;22.80;41.40;;;;;;5070929;28;20555;-44
2021/03/11 17:32:10;;;;;;;4.18;2.80;;;22.80;42.10;;;;;;5071326;28;20451;-47
2021/03/11 17:34:42;;;;;;;5.60;3.47;;;22.80;42.30;;;;;;5073186;28;20400;-42
2021/03/11 17:37:09;;;;;;;5.70;2.70;;;22.80;42.50;;;;;;5070090;28;20037;-46
2021/03/11 17:39:38;;;;;;;5.78;2.70;;;22.80;42.60;;;;;;5072233;28;20044;-46
2021/03/11 17:42:05;;;;;;;5.20;2.58;;;22.80;42.70;;;;;;5072022;28;20488;-48
2021/03/11 17:44:32;;;;;;;4.43;2.92;;;22.80;42.80;;;;;;5073485;28;20468;-44
2021/03/11 17:46:59;;;;;;;4.13;2.42;;;22.90;42.90;;;;;;5071428;28;20049;-42
2021/03/11 17:49:26;;;;;;;6.55;2.88;;;22.90;42.90;;;;;;5071358;28;20076;-42
2021/03/11 17:51:53;;;;;;;5.30;2.97;;;22.90;42.90;;;;;;5070100;28;20059;-42
2021/03/11 17:54:21;;;;;;;8.00;2.92;;;22.90;42.90;;;;;;5070712;28;20479;-43
2021/03/11 17:56:49;;;;;;;5.20;2.97;;;22.90;42.90;;;;;;5069406;28;20052;-46
2021/03/11 17:59:16;;;;;;;4.97;2.92;;;22.90;43.00;;;;;;5068539;28;20128;-43
2021/03/11 18:01:43;;;;;;;7.13;2.70;;;22.90;43.00;;;;;;5074596;28;20048;-42
2021/03/11 18:04:13;;;;;;;7.70;2.95;;;23.00;43.10;;;;;;5071339;28;20492;-43
2021/03/11 18:07:00;;;;;;;4.78;3.08;;;22.90;43.10;;;;;;5071102;28;20113;-43
2021/03/11 18:09:27;;;;;;;7.45;4.00;;;22.90;43.10;;;;;;5070890;28;20041;-43
2021/03/11 18:11:55;;;;;;;7.22;4.50;;;22.90;42.80;;;;;;5070102;28;20041;-44
2021/03/11 18:14:22;;;;;;;9.38;5.15;;;22.90;42.50;;;;;;5074741;28;20915;-42
2021/03/11 18:16:49;;;;;;;10.52;5.55;;;22.90;42.20;;;;;;5065374;28;20119;-44
2021/03/11 18:19:16;;;;;;;13.02;6.28;;;22.90;41.90;;;;;;5069064;28;20491;-44
2021/03/11 18:21:43;;;;;;;12.25;5.88;;;22.90;41.50;;;;;;5068442;28;20474;-43
2021/03/11 18:24:11;;;;;;;13.02;5.88;;;22.80;41.20;;;;;;5069607;28;20040;-45
2021/03/11 18:26:38;;;;;;;10.93;5.97;;;22.80;41.20;;;;;;5070571;28;20131;-42
2021/03/11 18:29:05;;;;;;;8.65;5.65;;;22.80;41.00;;;;;;5067784;28;20044;-43
2021/03/11 18:31:32;;;;;;;10.10;6.03;;;22.80;40.90;;;;;;5067864;28;20412;-43
2021/03/11 18:34:00;;;;;;;12.68;5.55;;;22.80;41.10;;;;;;5065054;28;20044;-42
2021/03/11 18:36:27;;;;;;;13.23;5.63;;;22.80;42.10;;;;;;5072081;28;20036;-43
2021/03/11 18:38:54;;;;;;;13.80;5.93;;;22.80;41.90;;;;;;5070297;28;20045;-43
2021/03/11 18:41:21;;;;;;;10.43;5.40;;;22.80;42.30;;;;;;5070123;28;20052;-43
2021/03/11 18:43:49;;;;;;;12.23;5.47;;;22.80;42.50;;;;;;5071879;28;20097;-44
2021/03/11 18:46:16;;;;;;;12.10;5.53;;;22.80;42.70;;;;;;5070534;28;20522;-43
2021/03/11 18:48:43;;;;;;;10.95;5.20;;;22.80;42.90;;;;;;5071461;28;20047;-46
2021/03/11 18:51:12;;;;;;;16.08;6.05;;;22.80;43.00;;;;;;5070303;28;20059;-42
2021/03/11 18:53:39;;;;;;;10.85;5.57;;;22.80;43.10;;;;;;5070389;28;20044;-42
2021/03/11 18:56:06;;;;;;;10.27;5.43;;;22.80;43.10;;;;;;5070222;28;20094;-42
2021/03/11 18:58:34;;;;;;;17.63;7.05;;;22.80;43.10;;;;;;5070443;28;20553;-42
2021/03/11 19:01:04;;;;;;;10.30;5.93;;;22.90;43.20;;;;;;5069852;28;20127;-47
2021/03/11 19:03:31;;;;;;;12.40;6.25;;;22.80;43.20;;;;;;5071184;28;20049;-43
2021/03/11 19:05:58;;;;;;;13.65;6.45;;;22.90;43.20;;;;;;5071479;28;20064;-42
2021/03/11 19:08:40;;;;;;;12.45;5.80;;;22.90;43.20;;;;;;5071222;28;20049;-42
2021/03/11 19:11:07;;;;;;;11.02;6.20;;;22.90;43.20;;;;;;5071794;28;20037;-42
2021/03/11 19:13:34;;;;;;;12.43;6.22;;;22.90;43.20;;;;;;5071764;28;20048;-42
2021/03/11 19:16:02;;;;;;;14.60;6.40;;;22.90;43.20;;;;;;5070908;28;20546;-45
2021/03/11 19:18:29;;;;;;;14.32;6.70;;;22.90;43.20;;;;;;5071251;28;20102;-45
2021/03/11 19:20:56;;;;;;;13.20;6.80;;;22.90;43.20;;;;;;5069992;28;20052;-41
2021/03/11 19:23:23;;;;;;;11.18;6.63;;;22.90;43.20;;;;;;5072582;28;20054;-43
2021/03/11 19:25:50;;;;;;;14.35;6.95;;;22.90;43.20;;;;;;5071377;28;20049;-44
2021/03/11 19:28:22;;;;;;;11.45;6.28;;;22.90;43.30;;;;;;5069302;28;20102;-44
2021/03/11 19:30:50;;;;;;;15.30;6.88;;;22.90;43.20;;;;;;5070722;28;20500;-43
2021/03/11 19:33:17;;;;;;;15.52;7.30;;;22.90;43.20;;;;;;5071073;28;20086;-42
2021/03/11 19:35:45;;;;;;;17.48;7.60;;;22.90;43.20;;;;;;5071974;28;20120;-44
2021/03/11 19:38:12;;;;;;;12.60;6.15;;;22.90;43.20;;;;;;5075107;28;20044;-42
2021/03/11 19:40:48;;;;;;;15.65;7.00;;;23.00;43.40;;;;;;5075052;28;20048;-42
2021/03/11 19:43:17;;;;;;;12.38;7.18;;;22.90;43.30;;;;;;5075197;28;20093;-43
2021/03/11 19:45:45;;;;;;;17.98;8.18;;;22.90;43.20;;;;;;5074431;28;20510;-44
2021/03/11 19:48:12;;;;;;;15.23;7.20;;;22.90;43.20;;;;;;5073429;28;20051;-42
2021/03/11 19:50:41;;;;;;;14.38;7.88;;;23.00;43.30;;;;;;5074573;28;20102;-42
2021/03/11 19:53:10;;;;;;;14.43;7.38;;;22.90;43.30;;;;;;5074652;28;20083;-42
2021/03/11 19:55:38;;;;;;;17.30;7.97;;;23.00;43.30;;;;;;5073317;28;20131;-42
2021/03/11 19:58:06;;;;;;;16.08;7.57;;;22.90;43.30;;;;;;5073413;28;20504;-42
2021/03/11 20:00:33;;;;;;;15.98;7.45;;;22.90;43.30;;;;;;5072920;28;20063;-42
2021/03/11 20:03:00;;;;;;;16.88;7.93;;;22.90;43.30;;;;;;5073455;28;20049;-43
2021/03/11 20:05:28;;;;;;;16.60;8.13;;;22.90;43.30;;;;;;5071932;28;20055;-43
2021/03/11 20:07:55;;;;;;;15.68;7.72;;;22.90;43.30;;;;;;5074604;28;20131;-42
2021/03/11 20:10:22;;;;;;;19.08;7.75;;;23.00;43.40;;;;;;5074647;28;20040;-42
2021/03/11 20:12:52;;;;;;;15.70;7.53;;;22.90;43.30;;;;;;5074669;28;20048;-42
2021/03/11 20:15:22;;;;;;;19.40;8.25;;;23.00;43.40;;;;;;5073184;28;20452;-42
2021/03/11 20:17:50;;;;;;;25.33;8.43;;;23.00;43.40;;;;;;5074230;28;20098;-42
2021/03/11 20:20:21;;;;;;;18.02;8.27;;;23.00;43.40;;;;;;5075532;28;20048;-42
2021/03/11 20:22:48;;;;;;;18.05;8.32;;;23.00;43.40;;;;;;5074038;28;20052;-43
2021/03/11 20:25:15;;;;;;;25.45;8.80;;;23.00;43.40;;;;;;5073083;28;20128;-42
2021/03/11 20:27:43;;;;;;;15.43;7.82;;;23.00;43.40;;;;;;5073143;28;20056;-43
2021/03/11 20:30:13;;;;;;;22.85;8.38;;;23.00;43.40;;;;;;5071295;28;20047;-42
2021/03/11 20:32:41;;;;;;;20.70;8.38;;;23.00;43.40;;;;;;5071352;28;20474;-42
2021/03/11 20:35:11;;;;;;;15.18;7.93;;;23.00;43.40;;;;;;5072701;28;20161;-43
2021/03/11 20:37:39;;;;;;;17.17;8.73;;;23.00;43.40;;;;;;5073713;28;20048;-42
2021/03/11 20:40:09;;;;;;;19.52;8.05;;;23.00;43.40;;;;;;5073126;28;20545;-43
2021/03/11 20:42:38;;;;;;;19.77;7.85;;;23.00;43.50;;;;;;5074565;28;20127;-42
2021/03/11 20:45:08;;;;;;;19.08;8.68;;;23.00;43.50;;;;;;5072903;28;20048;-42
2021/03/11 20:47:35;;;;;;;18.83;8.55;;;23.00;43.50;;;;;;5072556;28;20118;-42
2021/03/11 20:50:08;;;;;;;18.33;8.48;;;23.00;43.50;;;;;;5073805;28;20048;-42
2021/03/11 20:52:37;;;;;;;22.88;9.13;;;23.00;44.10;;;;;;5073705;28;20048;-43
2021/03/11 20:55:06;;;;;;;21.40;9.00;;;23.00;43.50;;;;;;5072255;28;20043;-43
2021/03/11 20:57:34;;;;;;;18.48;8.65;;;23.00;43.50;;;;;;5073960;28;20048;-44
2021/03/11 21:00:01;;;;;;;24.80;9.65;;;23.00;43.50;;;;;;5073484;28;20041;-44
2021/03/11 21:02:32;;;;;;;16.27;8.30;;;23.00;43.50;;;;;;5072472;28;20044;-42
2021/03/11 21:04:59;;;;;;;23.08;9.57;;;23.00;43.50;;;;;;5073444;28;20040;-42
2021/03/11 21:07:26;;;;;;;21.13;9.52;;;23.00;43.50;;;;;;5073827;28;20400;-42
2021/03/11 21:09:53;;;;;;;22.85;9.02;;;23.00;43.50;;;;;;5074747;28;20044;-42
2021/03/11 21:12:21;;;;;;;21.83;9.32;;;23.00;43.50;;;;;;5074236;28;20166;-42
2021/03/11 21:14:47;;;;;;;18.30;9.05;;;23.00;43.50;;;;;;5072663;28;20048;-43
2021/03/11 21:17:14;;;;;;;20.75;9.02;;;23.00;43.50;;;;;;5073266;28;20483;-43
2021/03/11 21:19:41;;;;;;;17.38;9.10;;;23.00;43.50;;;;;;5072115;28;20463;-42
2021/03/11 21:22:08;;;;;;;20.17;9.27;;;23.00;43.50;;;;;;5072252;28;20049;-42
2021/03/11 21:24:35;;;;;;;22.48;9.32;;;23.00;43.50;;;;;;5071674;28;20412;-42
2021/03/11 21:27:04;;;;;;;21.85;9.40;;;23.00;43.50;;;;;;5071374;28;20052;-42
2021/03/11 21:29:32;;;;;;;32.00;9.77;;;23.00;43.50;;;;;;5071408;28;20045;-43
2021/03/11 21:31:58;;;;;;;20.25;9.23;;;23.00;43.50;;;;;;5070383;28;20051;-42
2021/03/11 21:34:25;;;;;;;20.98;9.25;;;23.00;43.50;;;;;;5071531;28;20114;-45
2021/03/11 21:36:53;;;;;;;23.33;8.90;;;23.00;43.50;;;;;;5072851;28;20146;-43
2021/03/11 21:39:21;;;;;;;25.00;9.98;;;23.00;43.50;;;;;;5074065;28;20059;-42
2021/03/11 21:41:49;;;;;;;22.98;9.35;;;23.00;43.50;;;;;;5072890;28;20522;-42
2021/03/11 21:44:16;;;;;;;21.17;9.18;;;23.00;43.50;;;;;;5071331;28;20132;-42
2021/03/11 21:46:42;;;;;;;20.17;9.32;;;23.00;43.50;;;;;;5071561;28;20056;-44
2021/03/11 21:49:09;;;;;;;21.63;9.02;;;23.00;43.60;;;;;;5072461;28;20048;-42
2021/03/11 21:51:43;;;;;;;23.42;8.93;;;23.00;43.50;;;;;;5071295;28;20048;-42
2021/03/11 21:54:12;;;;;;;21.80;9.48;;;23.00;43.60;;;;;;5072320;28;20049;-42
2021/03/11 21:56:40;;;;;;;25.48;10.25;;;23.00;43.60;;;;;;5071059;28;20044;-42
2021/03/11 21:59:06;;;;;;;23.05;9.98;;;23.00;43.60;;;;;;5070086;28;20052;-42
2021/03/11 22:01:33;;;;;;;24.73;9.40;;;23.00;43.60;;;;;;5072054;28;20412;-43
2021/03/11 22:04:00;;;;;;;23.50;9.60;;;23.00;43.60;;;;;;5071454;28;20055;-42
2021/03/11 22:06:28;;;;;;;21.05;9.82;;;23.00;43.60;;;;;;5071025;28;20052;-42
2021/03/11 22:08:54;;;;;;;21.00;9.63;;;23.00;43.60;;;;;;5087503;28;20498;-42
2021/03/11 22:11:21;;;;;;;19.95;8.82;;;23.00;43.60;;;;;;5070807;28;20059;-42
2021/03/11 22:14:08;;;;;;;20.67;9.05;;;23.00;43.60;;;;;;5071023;28;20412;-42
2021/03/11 22:16:35;;;;;;;22.33;10.25;;;23.00;43.60;;;;;;5072123;28;20055;-42
2021/03/11 22:19:02;;;;;;;22.15;9.75;;;23.00;43.60;;;;;;5071878;28;20051;-42
2021/03/11 22:21:29;;;;;;;21.60;9.63;;;23.00;43.60;;;;;;5072961;28;20051;-42
2021/03/11 22:23:56;;;;;;;26.92;10.27;;;23.00;43.60;;;;;;5070511;28;20070;-42
2021/03/11 22:26:23;;;;;;;22.33;9.70;;;23.00;43.60;;;;;;5071722;28;20044;-42
2021/03/11 22:28:49;;;;;;;21.52;8.88;;;23.00;43.60;;;;;;5071958;28;20045;-42
2021/03/11 22:31:16;;;;;;;22.20;9.68;;;23.00;43.60;;;;;;5071777;28;20044;-42
2021/03/11 22:33:43;;;;;;;20.08;9.27;;;23.00;43.70;;;;;;5071633;28;20044;-42
2021/03/11 22:36:10;;;;;;;20.08;9.18;;;23.00;43.60;;;;;;5073133;28;20575;-43
2021/03/11 22:38:38;;;;;;;22.27;10.52;;;23.00;43.60;;;;;;5071956;28;20199;-42
2021/03/11 22:41:05;;;;;;;18.75;8.68;;;23.00;43.60;;;;;;5070958;28;20045;-42
2021/03/11 22:43:32;;;;;;;19.05;8.95;;;23.00;43.60;;;;;;5070388;28;20049;-42
2021/03/11 22:45:59;;;;;;;21.88;10.48;;;23.00;43.60;;;;;;5072739;28;20044;-42
2021/03/11 22:48:25;;;;;;;20.75;9.43;;;23.00;43.60;;;;;;5070657;28;20062;-42
2021/03/11 22:50:53;;;;;;;24.25;9.05;;;23.00;43.70;;;;;;5070449;28;20074;-43
2021/03/11 22:53:19;;;;;;;17.80;9.10;;;23.00;43.70;;;;;;5070450;28;20431;-43
2021/03/11 22:55:47;;;;;;;25.85;9.75;;;23.00;43.70;;;;;;5071466;28;20123;-42
2021/03/11 22:58:13;;;;;;;18.60;9.85;;;23.00;43.70;;;;;;5070699;28;20396;-45
2021/03/11 23:00:41;;;;;;;19.90;9.70;;;23.00;43.70;;;;;;5070058;28;20062;-43
2021/03/11 23:03:13;;;;;;;26.92;9.48;;;23.00;43.70;;;;;;5071818;28;20048;-44
2021/03/11 23:05:40;;;;;;;24.20;9.10;;;23.00;43.70;;;;;;5071259;28;20048;-42
2021/03/11 23:08:07;;;;;;;20.67;9.68;;;23.00;43.70;;;;;;5072407;28;20052;-44
2021/03/11 23:11:00;;;;;;;24.63;9.13;;;23.00;43.70;;;;;;5072614;28;20045;-42
2021/03/11 23:13:26;;;;;;;23.08;9.27;;;23.00;43.70;;;;;;5074674;28;20048;-42
2021/03/11 23:15:54;;;;;;;19.83;9.32;;;23.00;43.80;;;;;;5074531;28;20044;-43
2021/03/11 23:18:22;;;;;;;18.67;9.10;;;23.00;43.80;;;;;;5074816;28;20056;-42
2021/03/11 23:20:50;;;;;;;20.52;9.18;;;23.00;43.80;;;;;;5075470;28;20049;-42
2021/03/11 23:23:30;;;;;;;19.58;9.15;;;23.00;43.80;;;;;;5075344;28;20060;-42
2021/03/11 23:25:57;;;;;;;25.80;10.23;;;23.00;43.80;;;;;;5075396;28;20057;-42
2021/03/11 23:28:24;;;;;;;19.67;9.30;;;23.00;43.80;;;;;;5074806;28;20416;-45
2021/03/11 23:30:54;;;;;;;22.15;10.35;;;23.00;43.80;;;;;;5073955;28;20380;-44
2021/03/11 23:33:21;;;;;;;19.17;9.10;;;23.00;43.80;;;;;;5073974;28;20095;-44
2021/03/11 23:35:49;;;;;;;18.55;9.07;;;23.00;43.80;;;;;;5073818;28;20037;-42
2021/03/11 23:38:16;;;;;;;20.30;9.07;;;23.00;43.80;;;;;;5075417;28;20048;-45
2021/03/11 23:40:44;;;;;;;19.83;9.50;;;23.00;43.80;;;;;;5075223;28;20055;-46
2021/03/11 23:43:13;;;;;;;21.80;9.80;;;23.00;43.80;;;;;;5073235;28;20218;-43
2021/03/11 23:45:40;;;;;;;20.67;9.73;;;23.00;43.80;;;;;;5074989;28;20048;-42
2021/03/11 23:48:09;;;;;;;24.33;9.10;;;23.00;43.80;;;;;;5074625;28;20059;-42
2021/03/11 23:50:48;;;;;;;22.92;9.93;;;23.00;43.80;;;;;;5075029;28;20132;-45
2021/03/11 23:53:16;;;;;;;21.73;10.38;;;22.90;43.80;;;;;;5073412;28;20045;-46
2021/03/11 23:55:44;;;;;;;21.13;9.38;;;23.00;43.80;;;;;;5073797;28;20051;-42
2021/03/11 23:58:11;;;;;;;20.90;9.73;;;22.90;43.80;;;;;;5075048;28;20060;-42
